sensor_id;sensor_type;location;lat;lon;timestamp;P1;durP1;ratioP1;P2;durP2;ratioP2
24143;SDS011;12307;50.828;6.080;2022-11-24T00:02:02;2.53;;;1.17;;
24143;SDS011;12307;50.828;6.080;2022-11-24T00:04:28;3.28;;;1.35;;
24143;SDS011;12307;50.828;6.080;2022-11-24T00:06:53;4.38;;;1.30;;
24143;SDS011;12307;50.828;6.080;2022-11-24T00:09:19;3.28;;;1.25;;
24143;SDS011;12307;50.828;6.080;2022-11-24T00:11:46;3.22;;;1.35;;
24143;SDS011;12307;50.828;6.080;2022-11-24T00:14:11;2.45;;;1.20;;
24143;SDS011;12307;50.828;6.080;2022-11-24T00:16:37;3.90;;;1.40;;
24143;SDS011;12307;50.828;6.080;2022-11-24T00:19:04;3.22;;;1.25;;
24143;SDS011;12307;50.828;6.080;2022-11-24T00:21:32;2.58;;;1.25;;
24143;SDS011;12307;50.828;6.080;2022-11-24T00:23:57;4.20;;;1.38;;
24143;SDS011;12307;50.828;6.080;2022-11-24T00:26:24;3.53;;;1.35;;
24143;SDS011;12307;50.828;6.080;2022-11-24T00:28:52;2.50;;;1.25;;
24143;SDS011;12307;50.828;6.080;2022-11-24T00:31:20;3.42;;;1.48;;
24143;SDS011;12307;50.828;6.080;2022-11-24T00:33:47;2.35;;;1.13;;
24143;SDS011;12307;50.828;6.080;2022-11-24T00:36:13;4.03;;;1.40;;
24143;SDS011;12307;50.828;6.080;2022-11-24T00:38:40;2.20;;;1.10;;
24143;SDS011;12307;50.828;6.080;2022-11-24T00:41:05;2.42;;;1.20;;
24143;SDS011;12307;50.828;6.080;2022-11-24T00:43:31;3.22;;;1.10;;
24143;SDS011;12307;50.828;6.080;2022-11-24T00:45:58;5.43;;;1.58;;
24143;SDS011;12307;50.828;6.080;2022-11-24T00:48:24;2.90;;;1.33;;
24143;SDS011;12307;50.828;6.080;2022-11-24T00:50:56;3.33;;;1.30;;
24143;SDS011;12307;50.828;6.080;2022-11-24T00:53:23;4.03;;;1.40;;
24143;SDS011;12307;50.828;6.080;2022-11-24T00:55:50;3.20;;;1.27;;
24143;SDS011;12307;50.828;6.080;2022-11-24T00:58:16;2.85;;;1.20;;
24143;SDS011;12307;50.828;6.080;2022-11-24T01:00:42;5.85;;;1.55;;
24143;SDS011;12307;50.828;6.080;2022-11-24T01:03:09;5.03;;;1.60;;
24143;SDS011;12307;50.828;6.080;2022-11-24T01:05:36;3.28;;;1.33;;
24143;SDS011;12307;50.828;6.080;2022-11-24T01:08:02;3.03;;;1.50;;
24143;SDS011;12307;50.828;6.080;2022-11-24T01:10:28;3.75;;;1.38;;
24143;SDS011;12307;50.828;6.080;2022-11-24T01:12:54;3.42;;;1.10;;
24143;SDS011;12307;50.828;6.080;2022-11-24T01:15:20;3.22;;;1.30;;
24143;SDS011;12307;50.828;6.080;2022-11-24T01:17:46;3.30;;;1.30;;
24143;SDS011;12307;50.828;6.080;2022-11-24T01:20:13;3.75;;;1.30;;
24143;SDS011;12307;50.828;6.080;2022-11-24T01:22:38;2.60;;;1.30;;
24143;SDS011;12307;50.828;6.080;2022-11-24T01:25:08;3.10;;;1.30;;
24143;SDS011;12307;50.828;6.080;2022-11-24T01:27:34;3.15;;;1.40;;
24143;SDS011;12307;50.828;6.080;2022-11-24T01:30:00;4.55;;;1.40;;
24143;SDS011;12307;50.828;6.080;2022-11-24T01:32:26;3.97;;;1.42;;
24143;SDS011;12307;50.828;6.080;2022-11-24T01:34:52;3.53;;;1.48;;
24143;SDS011;12307;50.828;6.080;2022-11-24T01:37:19;4.10;;;1.40;;
24143;SDS011;12307;50.828;6.080;2022-11-24T01:39:44;4.30;;;1.52;;
24143;SDS011;12307;50.828;6.080;2022-11-24T01:42:10;4.53;;;1.42;;
24143;SDS011;12307;50.828;6.080;2022-11-24T01:44:36;4.43;;;1.80;;
24143;SDS011;12307;50.828;6.080;2022-11-24T01:47:02;3.55;;;1.48;;
24143;SDS011;12307;50.828;6.080;2022-11-24T01:49:33;2.55;;;1.20;;
24143;SDS011;12307;50.828;6.080;2022-11-24T01:52:03;4.35;;;1.60;;
24143;SDS011;12307;50.828;6.080;2022-11-24T01:54:34;4.10;;;1.40;;
24143;SDS011;12307;50.828;6.080;2022-11-24T01:57:04;4.00;;;1.45;;
24143;SDS011;12307;50.828;6.080;2022-11-24T01:59:33;5.15;;;1.50;;
24143;SDS011;12307;50.828;6.080;2022-11-24T02:01:59;4.35;;;1.40;;
24143;SDS011;12307;50.828;6.080;2022-11-24T02:04:26;3.00;;;1.50;;
24143;SDS011;12307;50.828;6.080;2022-11-24T02:06:56;5.68;;;1.60;;
24143;SDS011;12307;50.828;6.080;2022-11-24T02:09:25;3.80;;;1.48;;
24143;SDS011;12307;50.828;6.080;2022-11-24T02:11:57;4.47;;;1.48;;
24143;SDS011;12307;50.828;6.080;2022-11-24T02:14:24;3.60;;;1.40;;
24143;SDS011;12307;50.828;6.080;2022-11-24T02:16:51;4.07;;;1.58;;
24143;SDS011;12307;50.828;6.080;2022-11-24T02:19:19;5.20;;;1.90;;
24143;SDS011;12307;50.828;6.080;2022-11-24T02:21:55;3.83;;;1.52;;
24143;SDS011;12307;50.828;6.080;2022-11-24T02:24:22;4.32;;;1.50;;
24143;SDS011;12307;50.828;6.080;2022-11-24T02:26:55;3.15;;;1.52;;
24143;SDS011;12307;50.828;6.080;2022-11-24T02:29:21;3.17;;;1.45;;
24143;SDS011;12307;50.828;6.080;2022-11-24T02:31:48;4.30;;;1.67;;
24143;SDS011;12307;50.828;6.080;2022-11-24T02:34:16;4.22;;;1.55;;
24143;SDS011;12307;50.828;6.080;2022-11-24T02:36:41;5.00;;;1.60;;
24143;SDS011;12307;50.828;6.080;2022-11-24T02:39:08;4.22;;;1.60;;
24143;SDS011;12307;50.828;6.080;2022-11-24T02:41:35;4.95;;;1.65;;
24143;SDS011;12307;50.828;6.080;2022-11-24T02:44:03;3.95;;;1.70;;
24143;SDS011;12307;50.828;6.080;2022-11-24T02:46:29;5.28;;;2.00;;
24143;SDS011;12307;50.828;6.080;2022-11-24T02:48:55;4.43;;;1.50;;
24143;SDS011;12307;50.828;6.080;2022-11-24T02:51:21;4.13;;;1.50;;
24143;SDS011;12307;50.828;6.080;2022-11-24T02:53:47;4.88;;;2.00;;
24143;SDS011;12307;50.828;6.080;2022-11-24T02:56:12;3.85;;;1.38;;
24143;SDS011;12307;50.828;6.080;2022-11-24T02:58:38;4.78;;;1.63;;
24143;SDS011;12307;50.828;6.080;2022-11-24T03:01:05;3.22;;;1.40;;
24143;SDS011;12307;50.828;6.080;2022-11-24T03:03:31;3.78;;;1.50;;
24143;SDS011;12307;50.828;6.080;2022-11-24T03:05:56;5.32;;;2.00;;
24143;SDS011;12307;50.828;6.080;2022-11-24T03:08:22;2.75;;;1.25;;
24143;SDS011;12307;50.828;6.080;2022-11-24T03:10:48;2.80;;;1.38;;
24143;SDS011;12307;50.828;6.080;2022-11-24T03:13:14;4.82;;;1.35;;
24143;SDS011;12307;50.828;6.080;2022-11-24T03:15:39;3.72;;;1.60;;
24143;SDS011;12307;50.828;6.080;2022-11-24T03:18:06;3.47;;;1.27;;
24143;SDS011;12307;50.828;6.080;2022-11-24T03:20:32;3.70;;;1.60;;
24143;SDS011;12307;50.828;6.080;2022-11-24T03:22:58;4.57;;;1.63;;
24143;SDS011;12307;50.828;6.080;2022-11-24T03:25:23;5.55;;;1.58;;
24143;SDS011;12307;50.828;6.080;2022-11-24T03:27:49;5.00;;;1.42;;
24143;SDS011;12307;50.828;6.080;2022-11-24T03:30:15;5.53;;;1.83;;
24143;SDS011;12307;50.828;6.080;2022-11-24T03:32:41;4.68;;;1.52;;
24143;SDS011;12307;50.828;6.080;2022-11-24T03:35:08;5.50;;;1.67;;
24143;SDS011;12307;50.828;6.080;2022-11-24T03:37:34;5.68;;;1.70;;
24143;SDS011;12307;50.828;6.080;2022-11-24T03:39:59;4.13;;;1.60;;
24143;SDS011;12307;50.828;6.080;2022-11-24T03:42:25;3.35;;;1.40;;
24143;SDS011;12307;50.828;6.080;2022-11-24T03:44:51;3.58;;;1.40;;
24143;SDS011;12307;50.828;6.080;2022-11-24T03:47:16;4.13;;;1.67;;
24143;SDS011;12307;50.828;6.080;2022-11-24T03:49:42;5.07;;;2.25;;
24143;SDS011;12307;50.828;6.080;2022-11-24T03:52:09;4.60;;;1.60;;
24143;SDS011;12307;50.828;6.080;2022-11-24T03:54:34;3.83;;;1.50;;
24143;SDS011;12307;50.828;6.080;2022-11-24T03:57:00;5.63;;;1.55;;
24143;SDS011;12307;50.828;6.080;2022-11-24T03:59:26;4.10;;;1.55;;
24143;SDS011;12307;50.828;6.080;2022-11-24T04:01:51;4.32;;;1.60;;
24143;SDS011;12307;50.828;6.080;2022-11-24T04:04:17;5.65;;;1.92;;
24143;SDS011;12307;50.828;6.080;2022-11-24T04:06:43;4.45;;;1.52;;
24143;SDS011;12307;50.828;6.080;2022-11-24T04:09:10;4.95;;;1.83;;
24143;SDS011;12307;50.828;6.080;2022-11-24T04:11:35;4.68;;;1.77;;
24143;SDS011;12307;50.828;6.080;2022-11-24T04:14:20;4.15;;;1.60;;
24143;SDS011;12307;50.828;6.080;2022-11-24T04:16:45;3.85;;;1.30;;
24143;SDS011;12307;50.828;6.080;2022-11-24T04:19:11;5.93;;;1.77;;
24143;SDS011;12307;50.828;6.080;2022-11-24T04:21:37;5.25;;;2.05;;
24143;SDS011;12307;50.828;6.080;2022-11-24T04:24:03;4.68;;;1.55;;
24143;SDS011;12307;50.828;6.080;2022-11-24T04:26:30;5.57;;;1.70;;
24143;SDS011;12307;50.828;6.080;2022-11-24T04:28:56;6.40;;;1.73;;
24143;SDS011;12307;50.828;6.080;2022-11-24T04:31:21;7.38;;;1.80;;
24143;SDS011;12307;50.828;6.080;2022-11-24T04:33:47;4.85;;;1.60;;
24143;SDS011;12307;50.828;6.080;2022-11-24T04:36:12;6.93;;;1.90;;
24143;SDS011;12307;50.828;6.080;2022-11-24T04:38:38;4.85;;;1.80;;
24143;SDS011;12307;50.828;6.080;2022-11-24T04:41:04;6.15;;;1.80;;
24143;SDS011;12307;50.828;6.080;2022-11-24T04:43:32;4.78;;;1.70;;
24143;SDS011;12307;50.828;6.080;2022-11-24T04:45:58;4.65;;;1.95;;
24143;SDS011;12307;50.828;6.080;2022-11-24T04:48:25;3.83;;;1.52;;
24143;SDS011;12307;50.828;6.080;2022-11-24T04:50:51;4.38;;;1.60;;
24143;SDS011;12307;50.828;6.080;2022-11-24T04:53:16;6.43;;;1.60;;
24143;SDS011;12307;50.828;6.080;2022-11-24T04:55:42;5.55;;;1.88;;
24143;SDS011;12307;50.828;6.080;2022-11-24T04:58:08;5.43;;;1.70;;
24143;SDS011;12307;50.828;6.080;2022-11-24T05:00:36;4.13;;;1.92;;
24143;SDS011;12307;50.828;6.080;2022-11-24T05:03:02;4.47;;;1.77;;
24143;SDS011;12307;50.828;6.080;2022-11-24T05:05:28;5.10;;;1.73;;
24143;SDS011;12307;50.828;6.080;2022-11-24T05:07:53;5.05;;;1.80;;
24143;SDS011;12307;50.828;6.080;2022-11-24T05:10:19;4.78;;;2.00;;
24143;SDS011;12307;50.828;6.080;2022-11-24T05:13:01;4.45;;;1.80;;
24143;SDS011;12307;50.828;6.080;2022-11-24T05:15:28;4.30;;;1.60;;
24143;SDS011;12307;50.828;6.080;2022-11-24T05:17:55;5.25;;;1.85;;
24143;SDS011;12307;50.828;6.080;2022-11-24T05:20:21;5.30;;;1.85;;
24143;SDS011;12307;50.828;6.080;2022-11-24T05:22:47;4.90;;;1.75;;
24143;SDS011;12307;50.828;6.080;2022-11-24T05:25:13;5.47;;;1.60;;
24143;SDS011;12307;50.828;6.080;2022-11-24T05:27:39;3.63;;;1.80;;
24143;SDS011;12307;50.828;6.080;2022-11-24T05:30:05;4.40;;;1.83;;
24143;SDS011;12307;50.828;6.080;2022-11-24T05:32:32;3.70;;;1.70;;
24143;SDS011;12307;50.828;6.080;2022-11-24T05:34:59;4.15;;;1.73;;
24143;SDS011;12307;50.828;6.080;2022-11-24T05:37:26;4.03;;;1.70;;
24143;SDS011;12307;50.828;6.080;2022-11-24T05:39:52;5.50;;;1.70;;
24143;SDS011;12307;50.828;6.080;2022-11-24T05:42:18;5.00;;;1.95;;
24143;SDS011;12307;50.828;6.080;2022-11-24T05:45:03;4.47;;;1.63;;
24143;SDS011;12307;50.828;6.080;2022-11-24T05:47:29;4.22;;;1.67;;
24143;SDS011;12307;50.828;6.080;2022-11-24T05:49:55;6.10;;;1.65;;
24143;SDS011;12307;50.828;6.080;2022-11-24T05:52:22;3.75;;;1.50;;
24143;SDS011;12307;50.828;6.080;2022-11-24T05:54:48;3.20;;;1.40;;
24143;SDS011;12307;50.828;6.080;2022-11-24T05:57:15;4.88;;;1.80;;
24143;SDS011;12307;50.828;6.080;2022-11-24T05:59:41;5.20;;;1.98;;
24143;SDS011;12307;50.828;6.080;2022-11-24T06:02:06;5.30;;;1.90;;
24143;SDS011;12307;50.828;6.080;2022-11-24T06:04:33;5.57;;;1.55;;
24143;SDS011;12307;50.828;6.080;2022-11-24T06:06:59;3.72;;;1.45;;
24143;SDS011;12307;50.828;6.080;2022-11-24T06:09:26;3.40;;;1.33;;
24143;SDS011;12307;50.828;6.080;2022-11-24T06:11:52;3.95;;;1.60;;
24143;SDS011;12307;50.828;6.080;2022-11-24T06:14:17;4.50;;;1.65;;
24143;SDS011;12307;50.828;6.080;2022-11-24T06:16:43;3.80;;;1.60;;
24143;SDS011;12307;50.828;6.080;2022-11-24T06:19:09;4.90;;;1.40;;
24143;SDS011;12307;50.828;6.080;2022-11-24T06:21:35;3.83;;;1.40;;
24143;SDS011;12307;50.828;6.080;2022-11-24T06:24:01;3.83;;;1.42;;
24143;SDS011;12307;50.828;6.080;2022-11-24T06:26:28;3.42;;;1.38;;
24143;SDS011;12307;50.828;6.080;2022-11-24T06:28:53;3.05;;;1.48;;
24143;SDS011;12307;50.828;6.080;2022-11-24T06:31:19;1.95;;;1.08;;
24143;SDS011;12307;50.828;6.080;2022-11-24T06:33:44;4.38;;;1.35;;
24143;SDS011;12307;50.828;6.080;2022-11-24T06:36:11;4.35;;;1.50;;
24143;SDS011;12307;50.828;6.080;2022-11-24T06:38:38;5.13;;;1.63;;
24143;SDS011;12307;50.828;6.080;2022-11-24T06:41:04;3.10;;;1.15;;
24143;SDS011;12307;50.828;6.080;2022-11-24T06:43:33;3.15;;;1.70;;
24143;SDS011;12307;50.828;6.080;2022-11-24T06:45:59;4.57;;;1.67;;
24143;SDS011;12307;50.828;6.080;2022-11-24T06:48:25;4.35;;;1.50;;
24143;SDS011;12307;50.828;6.080;2022-11-24T06:50:51;2.28;;;1.25;;
24143;SDS011;12307;50.828;6.080;2022-11-24T06:53:17;3.83;;;1.52;;
24143;SDS011;12307;50.828;6.080;2022-11-24T06:55:43;4.20;;;1.35;;
24143;SDS011;12307;50.828;6.080;2022-11-24T06:58:10;3.22;;;1.42;;
24143;SDS011;12307;50.828;6.080;2022-11-24T07:00:37;2.90;;;1.38;;
24143;SDS011;12307;50.828;6.080;2022-11-24T07:03:03;3.60;;;1.65;;
24143;SDS011;12307;50.828;6.080;2022-11-24T07:05:29;3.15;;;1.70;;
24143;SDS011;12307;50.828;6.080;2022-11-24T07:07:55;4.38;;;1.65;;
24143;SDS011;12307;50.828;6.080;2022-11-24T07:10:23;3.22;;;1.60;;
24143;SDS011;12307;50.828;6.080;2022-11-24T07:12:48;4.07;;;1.70;;
24143;SDS011;12307;50.828;6.080;2022-11-24T07:15:14;4.13;;;1.67;;
24143;SDS011;12307;50.828;6.080;2022-11-24T07:17:41;4.22;;;1.67;;
24143;SDS011;12307;50.828;6.080;2022-11-24T07:20:07;3.33;;;1.50;;
24143;SDS011;12307;50.828;6.080;2022-11-24T07:22:34;3.60;;;1.67;;
24143;SDS011;12307;50.828;6.080;2022-11-24T07:24:59;2.72;;;1.30;;
24143;SDS011;12307;50.828;6.080;2022-11-24T07:27:25;4.22;;;1.60;;
24143;SDS011;12307;50.828;6.080;2022-11-24T07:29:51;2.47;;;1.40;;
24143;SDS011;12307;50.828;6.080;2022-11-24T07:32:17;5.03;;;1.80;;
24143;SDS011;12307;50.828;6.080;2022-11-24T07:34:44;3.67;;;1.70;;
24143;SDS011;12307;50.828;6.080;2022-11-24T07:37:10;3.25;;;1.50;;
24143;SDS011;12307;50.828;6.080;2022-11-24T07:39:35;5.05;;;1.60;;
24143;SDS011;12307;50.828;6.080;2022-11-24T07:42:01;4.07;;;1.67;;
24143;SDS011;12307;50.828;6.080;2022-11-24T07:44:29;4.35;;;1.60;;
24143;SDS011;12307;50.828;6.080;2022-11-24T07:46:54;3.72;;;1.63;;
24143;SDS011;12307;50.828;6.080;2022-11-24T07:49:20;5.70;;;1.60;;
24143;SDS011;12307;50.828;6.080;2022-11-24T07:51:47;4.35;;;1.55;;
24143;SDS011;12307;50.828;6.080;2022-11-24T07:54:13;7.03;;;1.70;;
24143;SDS011;12307;50.828;6.080;2022-11-24T07:56:38;3.22;;;1.38;;
24143;SDS011;12307;50.828;6.080;2022-11-24T07:59:04;4.88;;;1.60;;
24143;SDS011;12307;50.828;6.080;2022-11-24T08:01:30;4.65;;;1.60;;
24143;SDS011;12307;50.828;6.080;2022-11-24T08:03:56;4.80;;;1.70;;
24143;SDS011;12307;50.828;6.080;2022-11-24T08:06:22;4.60;;;1.83;;
24143;SDS011;12307;50.828;6.080;2022-11-24T08:08:49;5.35;;;1.67;;
24143;SDS011;12307;50.828;6.080;2022-11-24T08:11:15;4.88;;;1.50;;
24143;SDS011;12307;50.828;6.080;2022-11-24T08:13:42;8.13;;;2.03;;
24143;SDS011;12307;50.828;6.080;2022-11-24T08:16:09;4.35;;;1.48;;
24143;SDS011;12307;50.828;6.080;2022-11-24T08:18:36;4.00;;;1.67;;
24143;SDS011;12307;50.828;6.080;2022-11-24T08:21:02;3.13;;;1.52;;
24143;SDS011;12307;50.828;6.080;2022-11-24T08:23:28;5.80;;;1.50;;
24143;SDS011;12307;50.828;6.080;2022-11-24T08:25:56;7.75;;;1.88;;
24143;SDS011;12307;50.828;6.080;2022-11-24T08:28:27;5.70;;;1.67;;
24143;SDS011;12307;50.828;6.080;2022-11-24T08:30:55;4.05;;;1.70;;
24143;SDS011;12307;50.828;6.080;2022-11-24T08:33:26;6.10;;;1.83;;
24143;SDS011;12307;50.828;6.080;2022-11-24T08:35:51;3.67;;;1.40;;
24143;SDS011;12307;50.828;6.080;2022-11-24T08:38:17;6.85;;;1.60;;
24143;SDS011;12307;50.828;6.080;2022-11-24T08:40:43;4.90;;;1.83;;
24143;SDS011;12307;50.828;6.080;2022-11-24T08:43:10;4.53;;;1.88;;
24143;SDS011;12307;50.828;6.080;2022-11-24T08:45:35;5.35;;;1.85;;
24143;SDS011;12307;50.828;6.080;2022-11-24T08:48:01;6.38;;;1.73;;
24143;SDS011;12307;50.828;6.080;2022-11-24T08:50:27;4.10;;;1.80;;
24143;SDS011;12307;50.828;6.080;2022-11-24T08:52:53;6.53;;;1.70;;
24143;SDS011;12307;50.828;6.080;2022-11-24T08:55:19;4.30;;;1.70;;
24143;SDS011;12307;50.828;6.080;2022-11-24T08:57:44;6.68;;;1.70;;
24143;SDS011;12307;50.828;6.080;2022-11-24T09:00:12;6.13;;;1.60;;
24143;SDS011;12307;50.828;6.080;2022-11-24T09:02:45;5.85;;;1.73;;
24143;SDS011;12307;50.828;6.080;2022-11-24T09:05:17;6.13;;;1.90;;
24143;SDS011;12307;50.828;6.080;2022-11-24T09:07:43;4.38;;;1.63;;
24143;SDS011;12307;50.828;6.080;2022-11-24T09:10:08;4.95;;;1.63;;
24143;SDS011;12307;50.828;6.080;2022-11-24T09:12:34;7.95;;;1.70;;
24143;SDS011;12307;50.828;6.080;2022-11-24T09:15:00;5.78;;;1.60;;
24143;SDS011;12307;50.828;6.080;2022-11-24T09:17:27;5.43;;;1.77;;
24143;SDS011;12307;50.828;6.080;2022-11-24T09:19:52;6.15;;;1.70;;
24143;SDS011;12307;50.828;6.080;2022-11-24T09:22:18;4.93;;;2.00;;
24143;SDS011;12307;50.828;6.080;2022-11-24T09:24:44;5.50;;;2.00;;
24143;SDS011;12307;50.828;6.080;2022-11-24T09:27:09;7.68;;;2.03;;
24143;SDS011;12307;50.828;6.080;2022-11-24T09:29:35;6.70;;;2.20;;
24143;SDS011;12307;50.828;6.080;2022-11-24T09:32:00;6.97;;;1.90;;
24143;SDS011;12307;50.828;6.080;2022-11-24T09:34:27;8.02;;;1.58;;
24143;SDS011;12307;50.828;6.080;2022-11-24T09:36:53;4.32;;;1.60;;
24143;SDS011;12307;50.828;6.080;2022-11-24T09:39:19;5.82;;;1.75;;
24143;SDS011;12307;50.828;6.080;2022-11-24T09:44:52;5.63;;;2.00;;
24143;SDS011;12307;50.828;6.080;2022-11-24T09:47:37;6.00;;;2.10;;
24143;SDS011;12307;50.828;6.080;2022-11-24T09:50:14;8.75;;;1.90;;
24143;SDS011;12307;50.828;6.080;2022-11-24T09:52:45;4.20;;;1.75;;
24143;SDS011;12307;50.828;6.080;2022-11-24T09:55:23;6.10;;;1.83;;
24143;SDS011;12307;50.828;6.080;2022-11-24T09:57:55;7.15;;;2.05;;
24143;SDS011;12307;50.828;6.080;2022-11-24T10:00:27;7.43;;;2.08;;
24143;SDS011;12307;50.828;6.080;2022-11-24T10:02:54;11.02;;;2.25;;
24143;SDS011;12307;50.828;6.080;2022-11-24T10:05:22;12.00;;;2.33;;
24143;SDS011;12307;50.828;6.080;2022-11-24T10:07:54;7.60;;;2.15;;
24143;SDS011;12307;50.828;6.080;2022-11-24T10:10:27;11.07;;;2.50;;
24143;SDS011;12307;50.828;6.080;2022-11-24T10:13:04;7.53;;;1.98;;
24143;SDS011;12307;50.828;6.080;2022-11-24T10:15:43;8.98;;;2.60;;
24143;SDS011;12307;50.828;6.080;2022-11-24T10:21:24;10.27;;;2.15;;
24143;SDS011;12307;50.828;6.080;2022-11-24T10:24:19;8.02;;;2.38;;
24143;SDS011;12307;50.828;6.080;2022-11-24T10:26:58;7.07;;;2.47;;
24143;SDS011;12307;50.828;6.080;2022-11-24T10:29:27;8.60;;;2.40;;
24143;SDS011;12307;50.828;6.080;2022-11-24T10:31:57;9.85;;;2.28;;
24143;SDS011;12307;50.828;6.080;2022-11-24T10:34:26;7.82;;;2.45;;
24143;SDS011;12307;50.828;6.080;2022-11-24T10:37:00;11.68;;;2.50;;
24143;SDS011;12307;50.828;6.080;2022-11-24T10:39:31;7.88;;;2.15;;
24143;SDS011;12307;50.828;6.080;2022-11-24T10:42:02;9.27;;;2.38;;
24143;SDS011;12307;50.828;6.080;2022-11-24T10:44:31;8.27;;;2.20;;
24143;SDS011;12307;50.828;6.080;2022-11-24T10:46:57;8.40;;;2.10;;
24143;SDS011;12307;50.828;6.080;2022-11-24T10:49:23;8.88;;;2.42;;
24143;SDS011;12307;50.828;6.080;2022-11-24T10:51:56;10.98;;;2.80;;
24143;SDS011;12307;50.828;6.080;2022-11-24T10:54:30;8.95;;;2.08;;
24143;SDS011;12307;50.828;6.080;2022-11-24T10:56:56;10.45;;;2.30;;
24143;SDS011;12307;50.828;6.080;2022-11-24T10:59:29;6.10;;;2.00;;
24143;SDS011;12307;50.828;6.080;2022-11-24T11:01:57;8.63;;;2.33;;
24143;SDS011;12307;50.828;6.080;2022-11-24T11:04:24;9.18;;;2.65;;
24143;SDS011;12307;50.828;6.080;2022-11-24T11:07:05;9.10;;;2.38;;
24143;SDS011;12307;50.828;6.080;2022-11-24T11:09:42;8.60;;;2.30;;
24143;SDS011;12307;50.828;6.080;2022-11-24T11:12:09;8.15;;;2.03;;
24143;SDS011;12307;50.828;6.080;2022-11-24T11:14:36;9.35;;;2.40;;
24143;SDS011;12307;50.828;6.080;2022-11-24T11:17:02;9.80;;;2.28;;
24143;SDS011;12307;50.828;6.080;2022-11-24T11:19:43;13.07;;;2.28;;
24143;SDS011;12307;50.828;6.080;2022-11-24T11:22:14;9.65;;;2.65;;
24143;SDS011;12307;50.828;6.080;2022-11-24T11:24:47;7.88;;;2.45;;
24143;SDS011;12307;50.828;6.080;2022-11-24T11:27:31;8.63;;;2.70;;
24143;SDS011;12307;50.828;6.080;2022-11-24T11:30:02;10.82;;;2.42;;
24143;SDS011;12307;50.828;6.080;2022-11-24T11:32:49;10.00;;;2.13;;
24143;SDS011;12307;50.828;6.080;2022-11-24T11:35:17;8.60;;;2.30;;
24143;SDS011;12307;50.828;6.080;2022-11-24T11:37:45;8.80;;;2.58;;
24143;SDS011;12307;50.828;6.080;2022-11-24T11:40:14;9.27;;;2.30;;
24143;SDS011;12307;50.828;6.080;2022-11-24T11:42:42;15.05;;;2.53;;
24143;SDS011;12307;50.828;6.080;2022-11-24T11:45:13;10.48;;;2.28;;
24143;SDS011;12307;50.828;6.080;2022-11-24T11:47:42;8.80;;;2.00;;
24143;SDS011;12307;50.828;6.080;2022-11-24T11:50:12;7.47;;;2.25;;
24143;SDS011;12307;50.828;6.080;2022-11-24T11:52:53;10.63;;;2.40;;
24143;SDS011;12307;50.828;6.080;2022-11-24T11:55:36;9.95;;;2.50;;
24143;SDS011;12307;50.828;6.080;2022-11-24T12:01:19;12.02;;;2.33;;
24143;SDS011;12307;50.828;6.080;2022-11-24T12:03:55;7.93;;;2.63;;
24143;SDS011;12307;50.828;6.080;2022-11-24T12:06:33;10.43;;;3.05;;
24143;SDS011;12307;50.828;6.080;2022-11-24T12:09:19;8.27;;;2.20;;
24143;SDS011;12307;50.828;6.080;2022-11-24T12:11:59;11.68;;;2.45;;
24143;SDS011;12307;50.828;6.080;2022-11-24T12:14:38;9.65;;;3.38;;
24143;SDS011;12307;50.828;6.080;2022-11-24T12:17:27;9.27;;;2.63;;
24143;SDS011;12307;50.828;6.080;2022-11-24T12:20:02;8.43;;;2.63;;
24143;SDS011;12307;50.828;6.080;2022-11-24T12:22:41;9.30;;;2.42;;
24143;SDS011;12307;50.828;6.080;2022-11-24T12:25:19;14.30;;;2.47;;
24143;SDS011;12307;50.828;6.080;2022-11-24T12:27:51;8.18;;;2.33;;
24143;SDS011;12307;50.828;6.080;2022-11-24T12:30:25;10.43;;;2.38;;
24143;SDS011;12307;50.828;6.080;2022-11-24T12:33:11;8.98;;;2.45;;
24143;SDS011;12307;50.828;6.080;2022-11-24T12:35:51;8.98;;;2.92;;
24143;SDS011;12307;50.828;6.080;2022-11-24T12:38:30;8.13;;;2.38;;
24143;SDS011;12307;50.828;6.080;2022-11-24T12:41:13;11.25;;;2.45;;
24143;SDS011;12307;50.828;6.080;2022-11-24T12:43:54;9.48;;;2.13;;
24143;SDS011;12307;50.828;6.080;2022-11-24T12:46:24;13.68;;;2.58;;
24143;SDS011;12307;50.828;6.080;2022-11-24T12:49:00;11.75;;;2.63;;
24143;SDS011;12307;50.828;6.080;2022-11-24T12:51:36;12.23;;;2.53;;
24143;SDS011;12307;50.828;6.080;2022-11-24T12:54:07;10.43;;;2.70;;
24143;SDS011;12307;50.828;6.080;2022-11-24T12:56:39;13.45;;;2.85;;
24143;SDS011;12307;50.828;6.080;2022-11-24T12:59:17;12.70;;;2.78;;
24143;SDS011;12307;50.828;6.080;2022-11-24T13:01:52;10.27;;;2.53;;
24143;SDS011;12307;50.828;6.080;2022-11-24T13:04:28;7.47;;;2.33;;
24143;SDS011;12307;50.828;6.080;2022-11-24T13:06:59;10.68;;;2.42;;
24143;SDS011;12307;50.828;6.080;2022-11-24T13:09:28;8.98;;;2.28;;
24143;SDS011;12307;50.828;6.080;2022-11-24T13:11:56;11.60;;;2.75;;
24143;SDS011;12307;50.828;6.080;2022-11-24T13:14:32;12.00;;;2.67;;
24143;SDS011;12307;50.828;6.080;2022-11-24T13:17:02;12.15;;;2.53;;
24143;SDS011;12307;50.828;6.080;2022-11-24T13:19:45;9.55;;;2.38;;
24143;SDS011;12307;50.828;6.080;2022-11-24T13:22:13;13.02;;;3.15;;
24143;SDS011;12307;50.828;6.080;2022-11-24T13:24:41;9.82;;;2.53;;
24143;SDS011;12307;50.828;6.080;2022-11-24T13:27:37;7.90;;;2.50;;
24143;SDS011;12307;50.828;6.080;2022-11-24T13:33:17;9.35;;;2.70;;
24143;SDS011;12307;50.828;6.080;2022-11-24T13:38:53;10.65;;;2.60;;
24143;SDS011;12307;50.828;6.080;2022-11-24T13:44:28;14.13;;;2.80;;
24143;SDS011;12307;50.828;6.080;2022-11-24T13:50:21;14.98;;;2.65;;
24143;SDS011;12307;50.828;6.080;2022-11-24T13:52:50;22.00;;;3.05;;
24143;SDS011;12307;50.828;6.080;2022-11-24T13:55:31;12.07;;;2.90;;
24143;SDS011;12307;50.828;6.080;2022-11-24T13:58:02;10.40;;;2.70;;
24143;SDS011;12307;50.828;6.080;2022-11-24T14:00:57;8.27;;;2.42;;
24143;SDS011;12307;50.828;6.080;2022-11-24T14:03:27;8.48;;;2.45;;
24143;SDS011;12307;50.828;6.080;2022-11-24T14:05:57;13.65;;;2.67;;
24143;SDS011;12307;50.828;6.080;2022-11-24T14:08:25;11.15;;;2.42;;
24143;SDS011;12307;50.828;6.080;2022-11-24T14:10:52;13.70;;;3.15;;
24143;SDS011;12307;50.828;6.080;2022-11-24T14:13:24;10.90;;;2.45;;
24143;SDS011;12307;50.828;6.080;2022-11-24T14:15:59;8.68;;;2.58;;
24143;SDS011;12307;50.828;6.080;2022-11-24T14:18:26;9.00;;;2.42;;
24143;SDS011;12307;50.828;6.080;2022-11-24T14:20:55;11.82;;;2.67;;
24143;SDS011;12307;50.828;6.080;2022-11-24T14:23:21;9.38;;;2.45;;
24143;SDS011;12307;50.828;6.080;2022-11-24T14:25:47;11.38;;;2.63;;
24143;SDS011;12307;50.828;6.080;2022-11-24T14:28:18;10.68;;;2.08;;
24143;SDS011;12307;50.828;6.080;2022-11-24T14:30:46;12.55;;;2.35;;
24143;SDS011;12307;50.828;6.080;2022-11-24T14:33:13;6.10;;;2.20;;
24143;SDS011;12307;50.828;6.080;2022-11-24T14:35:42;8.77;;;2.50;;
24143;SDS011;12307;50.828;6.080;2022-11-24T14:38:08;10.75;;;2.53;;
24143;SDS011;12307;50.828;6.080;2022-11-24T14:40:37;11.85;;;2.45;;
24143;SDS011;12307;50.828;6.080;2022-11-24T14:43:05;13.07;;;3.13;;
24143;SDS011;12307;50.828;6.080;2022-11-24T14:45:45;12.23;;;2.30;;
24143;SDS011;12307;50.828;6.080;2022-11-24T14:48:14;16.98;;;2.90;;
24143;SDS011;12307;50.828;6.080;2022-11-24T14:50:41;6.13;;;1.85;;
24143;SDS011;12307;50.828;6.080;2022-11-24T14:53:07;7.50;;;2.08;;
24143;SDS011;12307;50.828;6.080;2022-11-24T14:55:37;8.32;;;2.17;;
24143;SDS011;12307;50.828;6.080;2022-11-24T14:58:18;7.65;;;2.15;;
24143;SDS011;12307;50.828;6.080;2022-11-24T15:00:44;11.15;;;2.50;;
24143;SDS011;12307;50.828;6.080;2022-11-24T15:03:31;9.63;;;2.58;;
24143;SDS011;12307;50.828;6.080;2022-11-24T15:05:57;8.80;;;2.20;;
24143;SDS011;12307;50.828;6.080;2022-11-24T15:08:25;8.75;;;2.53;;
24143;SDS011;12307;50.828;6.080;2022-11-24T15:10:56;9.00;;;2.35;;
24143;SDS011;12307;50.828;6.080;2022-11-24T15:13:24;10.75;;;2.58;;
24143;SDS011;12307;50.828;6.080;2022-11-24T15:15:51;8.80;;;2.45;;
24143;SDS011;12307;50.828;6.080;2022-11-24T15:18:22;10.82;;;2.40;;